sensor_id;sensor_type;location;lat;lon;timestamp;temperature;humidity
64654;DHT22;51065;48.884;12.598;2023-05-07T00:02:06;10.40;99.90
64654;DHT22;51065;48.884;12.598;2023-05-07T00:04:32;10.40;99.90
64654;DHT22;51065;48.884;12.598;2023-05-07T00:07:02;10.40;99.90
64654;DHT22;51065;48.884;12.598;2023-05-07T00:09:28;10.40;99.90
64654;DHT22;51065;48.884;12.598;2023-05-07T00:11:53;10.30;99.90
64654;DHT22;51065;48.884;12.598;2023-05-07T00:14:19;10.30;99.90
64654;DHT22;51065;48.884;12.598;2023-05-07T00:16:44;10.30;99.90
64654;DHT22;51065;48.884;12.598;2023-05-07T00:19:10;10.30;99.90
64654;DHT22;51065;48.884;12.598;2023-05-07T00:21:35;10.30;99.90
64654;DHT22;51065;48.884;12.598;2023-05-07T00:24:01;10.20;99.90
64654;DHT22;51065;48.884;12.598;2023-05-07T00:26:27;10.20;99.90
64654;DHT22;51065;48.884;12.598;2023-05-07T00:29:01;10.20;99.90
64654;DHT22;51065;48.884;12.598;2023-05-07T00:31:36;10.10;99.90
64654;DHT22;51065;48.884;12.598;2023-05-07T00:34:04;10.20;99.90
64654;DHT22;51065;48.884;12.598;2023-05-07T00:36:29;10.10;99.90
64654;DHT22;51065;48.884;12.598;2023-05-07T00:38:57;10.00;99.90
64654;DHT22;51065;48.884;12.598;2023-05-07T00:41:24;10.00;99.90
64654;DHT22;51065;48.884;12.598;2023-05-07T00:43:50;10.20;99.90
64654;DHT22;51065;48.884;12.598;2023-05-07T00:46:17;10.30;99.90
64654;DHT22;51065;48.884;12.598;2023-05-07T00:48:42;10.20;99.90
64654;DHT22;51065;48.884;12.598;2023-05-07T00:51:10;10.10;99.90
64654;DHT22;51065;48.884;12.598;2023-05-07T00:53:36;10.00;99.90
64654;DHT22;51065;48.884;12.598;2023-05-07T00:56:20;9.90;99.90
64654;DHT22;51065;48.884;12.598;2023-05-07T00:58:47;9.90;99.90
64654;DHT22;51065;48.884;12.598;2023-05-07T01:01:15;9.80;99.90
64654;DHT22;51065;48.884;12.598;2023-05-07T01:03:42;9.80;99.90
64654;DHT22;51065;48.884;12.598;2023-05-07T01:06:09;9.70;99.90
64654;DHT22;51065;48.884;12.598;2023-05-07T01:08:35;9.80;99.90
64654;DHT22;51065;48.884;12.598;2023-05-07T01:11:02;9.70;99.90
64654;DHT22;51065;48.884;12.598;2023-05-07T01:13:29;9.80;99.90
64654;DHT22;51065;48.884;12.598;2023-05-07T01:15:55;9.90;99.90
64654;DHT22;51065;48.884;12.598;2023-05-07T01:18:20;9.90;99.90
64654;DHT22;51065;48.884;12.598;2023-05-07T01:21:08;9.90;99.90
64654;DHT22;51065;48.884;12.598;2023-05-07T01:23:36;10.00;99.90
64654;DHT22;51065;48.884;12.598;2023-05-07T01:26:02;9.90;99.90
64654;DHT22;51065;48.884;12.598;2023-05-07T01:28:27;9.90;99.90
64654;DHT22;51065;48.884;12.598;2023-05-07T01:30:55;9.90;99.90
64654;DHT22;51065;48.884;12.598;2023-05-07T01:33:22;9.90;99.90
64654;DHT22;51065;48.884;12.598;2023-05-07T01:35:51;9.90;99.90
64654;DHT22;51065;48.884;12.598;2023-05-07T01:38:18;9.90;99.90
64654;DHT22;51065;48.884;12.598;2023-05-07T01:40:48;9.90;99.90
64654;DHT22;51065;48.884;12.598;2023-05-07T01:43:14;9.80;99.90
64654;DHT22;51065;48.884;12.598;2023-05-07T01:45:40;9.80;99.90
64654;DHT22;51065;48.884;12.598;2023-05-07T01:48:07;9.80;99.90
64654;DHT22;51065;48.884;12.598;2023-05-07T01:50:37;9.80;99.90
64654;DHT22;51065;48.884;12.598;2023-05-07T01:53:02;9.90;99.90
64654;DHT22;51065;48.884;12.598;2023-05-07T01:55:28;9.90;99.90
64654;DHT22;51065;48.884;12.598;2023-05-07T01:57:53;9.90;99.90
64654;DHT22;51065;48.884;12.598;2023-05-07T02:00:19;10.00;99.90
64654;DHT22;51065;48.884;12.598;2023-05-07T02:02:45;10.10;99.90
64654;DHT22;51065;48.884;12.598;2023-05-07T02:05:10;10.00;99.90
64654;DHT22;51065;48.884;12.598;2023-05-07T02:07:36;9.90;99.90
64654;DHT22;51065;48.884;12.598;2023-05-07T02:10:02;9.90;99.90
64654;DHT22;51065;48.884;12.598;2023-05-07T02:12:28;9.80;99.90
64654;DHT22;51065;48.884;12.598;2023-05-07T02:14:53;9.80;99.90
64654;DHT22;51065;48.884;12.598;2023-05-07T02:17:19;9.80;99.90
64654;DHT22;51065;48.884;12.598;2023-05-07T02:19:45;9.70;99.90
64654;DHT22;51065;48.884;12.598;2023-05-07T02:22:11;9.70;99.90
64654;DHT22;51065;48.884;12.598;2023-05-07T02:24:36;10.00;99.90
64654;DHT22;51065;48.884;12.598;2023-05-07T02:27:02;10.30;99.90
64654;DHT22;51065;48.884;12.598;2023-05-07T02:29:28;10.40;99.90
64654;DHT22;51065;48.884;12.598;2023-05-07T02:31:54;10.70;99.90
64654;DHT22;51065;48.884;12.598;2023-05-07T02:34:19;10.70;99.90
64654;DHT22;51065;48.884;12.598;2023-05-07T02:36:45;10.90;99.90
64654;DHT22;51065;48.884;12.598;2023-05-07T02:39:11;10.90;99.90
64654;DHT22;51065;48.884;12.598;2023-05-07T02:41:37;11.00;99.90
64654;DHT22;51065;48.884;12.598;2023-05-07T02:44:03;11.00;99.90
64654;DHT22;51065;48.884;12.598;2023-05-07T02:46:28;11.00;99.90
64654;DHT22;51065;48.884;12.598;2023-05-07T02:48:54;11.00;99.90
64654;DHT22;51065;48.884;12.598;2023-05-07T02:51:21;10.90;99.90
64654;DHT22;51065;48.884;12.598;2023-05-07T02:53:47;10.90;99.90
64654;DHT22;51065;48.884;12.598;2023-05-07T02:56:12;10.90;99.90
64654;DHT22;51065;48.884;12.598;2023-05-07T02:58:38;10.80;99.90
64654;DHT22;51065;48.884;12.598;2023-05-07T03:01:10;10.70;99.90
64654;DHT22;51065;48.884;12.598;2023-05-07T03:03:35;10.60;99.90
64654;DHT22;51065;48.884;12.598;2023-05-07T03:06:01;10.40;99.90
64654;DHT22;51065;48.884;12.598;2023-05-07T03:08:27;10.20;99.90
64654;DHT22;51065;48.884;12.598;2023-05-07T03:10:52;10.20;99.90
64654;DHT22;51065;48.884;12.598;2023-05-07T03:13:18;10.00;99.90
64654;DHT22;51065;48.884;12.598;2023-05-07T03:15:44;9.90;99.90
64654;DHT22;51065;48.884;12.598;2023-05-07T03:18:09;9.80;99.90
64654;DHT22;51065;48.884;12.598;2023-05-07T03:20:35;9.70;99.90
64654;DHT22;51065;48.884;12.598;2023-05-07T03:23:02;9.60;99.90
64654;DHT22;51065;48.884;12.598;2023-05-07T03:25:28;9.60;99.90
64654;DHT22;51065;48.884;12.598;2023-05-07T03:27:56;9.60;99.90
64654;DHT22;51065;48.884;12.598;2023-05-07T03:30:25;9.60;99.90
64654;DHT22;51065;48.884;12.598;2023-05-07T03:32:59;9.60;99.90
64654;DHT22;51065;48.884;12.598;2023-05-07T03:35:25;9.60;99.90
64654;DHT22;51065;48.884;12.598;2023-05-07T03:37:50;9.50;99.90
64654;DHT22;51065;48.884;12.598;2023-05-07T03:40:16;9.40;99.90
64654;DHT22;51065;48.884;12.598;2023-05-07T03:42:41;9.30;99.90
64654;DHT22;51065;48.884;12.598;2023-05-07T03:45:08;9.20;99.90
64654;DHT22;51065;48.884;12.598;2023-05-07T03:47:33;9.30;99.90
64654;DHT22;51065;48.884;12.598;2023-05-07T03:49:59;9.20;99.90
64654;DHT22;51065;48.884;12.598;2023-05-07T03:52:24;9.20;99.90
64654;DHT22;51065;48.884;12.598;2023-05-07T03:54:54;9.20;99.90
64654;DHT22;51065;48.884;12.598;2023-05-07T03:57:20;9.20;99.90
64654;DHT22;51065;48.884;12.598;2023-05-07T03:59:45;9.30;99.90
64654;DHT22;51065;48.884;12.598;2023-05-07T04:02:20;9.30;99.90
64654;DHT22;51065;48.884;12.598;2023-05-07T04:04:47;9.40;99.90
64654;DHT22;51065;48.884;12.598;2023-05-07T04:07:13;9.50;99.90
64654;DHT22;51065;48.884;12.598;2023-05-07T04:09:38;9.60;99.90
64654;DHT22;51065;48.884;12.598;2023-05-07T04:12:04;9.80;99.90
64654;DHT22;51065;48.884;12.598;2023-05-07T04:14:30;9.90;99.90
64654;DHT22;51065;48.884;12.598;2023-05-07T04:16:58;10.00;99.90
64654;DHT22;51065;48.884;12.598;2023-05-07T04:19:23;10.20;99.90
64654;DHT22;51065;48.884;12.598;2023-05-07T04:21:49;10.20;99.90
64654;DHT22;51065;48.884;12.598;2023-05-07T04:24:14;10.40;99.90
64654;DHT22;51065;48.884;12.598;2023-05-07T04:26:43;10.40;99.90
64654;DHT22;51065;48.884;12.598;2023-05-07T04:29:09;10.50;99.90
64654;DHT22;51065;48.884;12.598;2023-05-07T04:31:34;10.60;99.90
64654;DHT22;51065;48.884;12.598;2023-05-07T04:34:00;10.70;99.90
64654;DHT22;51065;48.884;12.598;2023-05-07T04:36:26;10.80;99.90
64654;DHT22;51065;48.884;12.598;2023-05-07T04:38:55;10.90;99.90
64654;DHT22;51065;48.884;12.598;2023-05-07T04:41:20;11.00;99.90
64654;DHT22;51065;48.884;12.598;2023-05-07T04:43:46;11.20;99.90
64654;DHT22;51065;48.884;12.598;2023-05-07T04:46:11;11.40;99.90
64654;DHT22;51065;48.884;12.598;2023-05-07T04:48:37;11.40;99.90
64654;DHT22;51065;48.884;12.598;2023-05-07T04:51:03;11.60;99.90
64654;DHT22;51065;48.884;12.598;2023-05-07T04:53:28;11.80;99.90
64654;DHT22;51065;48.884;12.598;2023-05-07T04:55:57;12.00;99.90
64654;DHT22;51065;48.884;12.598;2023-05-07T04:58:23;12.10;99.90
64654;DHT22;51065;48.884;12.598;2023-05-07T05:00:49;12.40;99.90
64654;DHT22;51065;48.884;12.598;2023-05-07T05:03:15;12.70;99.90
64654;DHT22;51065;48.884;12.598;2023-05-07T05:05:40;13.30;99.90
64654;DHT22;51065;48.884;12.598;2023-05-07T05:08:06;13.70;99.90
64654;DHT22;51065;48.884;12.598;2023-05-07T05:10:31;14.30;99.90
64654;DHT22;51065;48.884;12.598;2023-05-07T05:13:00;14.80;99.90
64654;DHT22;51065;48.884;12.598;2023-05-07T05:15:25;15.30;99.90
64654;DHT22;51065;48.884;12.598;2023-05-07T05:17:51;15.80;99.90
64654;DHT22;51065;48.884;12.598;2023-05-07T05:20:16;15.90;99.90
64654;DHT22;51065;48.884;12.598;2023-05-07T05:22:42;16.20;99.90
64654;DHT22;51065;48.884;12.598;2023-05-07T05:25:08;16.40;99.90
64654;DHT22;51065;48.884;12.598;2023-05-07T05:27:37;16.50;99.90
64654;DHT22;51065;48.884;12.598;2023-05-07T05:30:03;16.70;99.90
64654;DHT22;51065;48.884;12.598;2023-05-07T05:32:29;16.90;99.90
64654;DHT22;51065;48.884;12.598;2023-05-07T05:34:54;16.50;99.90
64654;DHT22;51065;48.884;12.598;2023-05-07T05:37:20;16.60;99.90
64654;DHT22;51065;48.884;12.598;2023-05-07T05:39:46;16.40;99.90
64654;DHT22;51065;48.884;12.598;2023-05-07T05:42:12;16.80;99.90
64654;DHT22;51065;48.884;12.598;2023-05-07T05:44:37;17.10;99.90
64654;DHT22;51065;48.884;12.598;2023-05-07T05:47:03;17.30;99.90
64654;DHT22;51065;48.884;12.598;2023-05-07T05:49:28;17.40;99.90
64654;DHT22;51065;48.884;12.598;2023-05-07T05:51:57;17.90;99.90
64654;DHT22;51065;48.884;12.598;2023-05-07T05:54:23;18.40;99.90
64654;DHT22;51065;48.884;12.598;2023-05-07T05:56:48;18.30;99.90
64654;DHT22;51065;48.884;12.598;2023-05-07T05:59:14;18.20;99.90
64654;DHT22;51065;48.884;12.598;2023-05-07T06:01:40;18.50;99.40
64654;DHT22;51065;48.884;12.598;2023-05-07T06:04:05;18.70;96.10
64654;DHT22;51065;48.884;12.598;2023-05-07T06:06:31;19.20;96.00
64654;DHT22;51065;48.884;12.598;2023-05-07T06:08:57;19.50;95.40
64654;DHT22;51065;48.884;12.598;2023-05-07T06:11:23;19.40;92.90
64654;DHT22;51065;48.884;12.598;2023-05-07T06:13:48;19.40;97.20
64654;DHT22;51065;48.884;12.598;2023-05-07T06:16:14;19.20;98.90
64654;DHT22;51065;48.884;12.598;2023-05-07T06:18:40;19.00;97.30
64654;DHT22;51065;48.884;12.598;2023-05-07T06:21:06;19.00;95.50
64654;DHT22;51065;48.884;12.598;2023-05-07T06:23:31;19.10;96.50
64654;DHT22;51065;48.884;12.598;2023-05-07T06:25:57;19.50;93.10
64654;DHT22;51065;48.884;12.598;2023-05-07T06:28:22;19.80;92.80
64654;DHT22;51065;48.884;12.598;2023-05-07T06:30:48;20.20;92.70
64654;DHT22;51065;48.884;12.598;2023-05-07T06:33:15;20.20;88.00
64654;DHT22;51065;48.884;12.598;2023-05-07T06:35:41;20.00;86.10
64654;DHT22;51065;48.884;12.598;2023-05-07T06:38:06;19.80;87.80
64654;DHT22;51065;48.884;12.598;2023-05-07T06:40:32;19.80;93.70
64654;DHT22;51065;48.884;12.598;2023-05-07T06:42:57;20.00;90.10
64654;DHT22;51065;48.884;12.598;2023-05-07T06:45:23;20.80;78.50
64654;DHT22;51065;48.884;12.598;2023-05-07T06:47:50;20.90;81.20
64654;DHT22;51065;48.884;12.598;2023-05-07T06:50:16;21.00;76.30
64654;DHT22;51065;48.884;12.598;2023-05-07T06:52:55;20.80;81.00
64654;DHT22;51065;48.884;12.598;2023-05-07T06:55:41;21.50;71.10
64654;DHT22;51065;48.884;12.598;2023-05-07T06:58:07;21.20;70.00
64654;DHT22;51065;48.884;12.598;2023-05-07T07:00:33;21.10;70.70
64654;DHT22;51065;48.884;12.598;2023-05-07T07:02:59;21.40;78.20
64654;DHT22;51065;48.884;12.598;2023-05-07T07:05:25;21.70;66.10
64654;DHT22;51065;48.884;12.598;2023-05-07T07:07:51;22.20;67.20
64654;DHT22;51065;48.884;12.598;2023-05-07T07:10:20;22.20;68.80
64654;DHT22;51065;48.884;12.598;2023-05-07T07:12:46;22.90;63.20
64654;DHT22;51065;48.884;12.598;2023-05-07T07:15:11;22.90;60.30
64654;DHT22;51065;48.884;12.598;2023-05-07T07:17:46;23.10;61.60
64654;DHT22;51065;48.884;12.598;2023-05-07T07:20:12;23.40;60.30
64654;DHT22;51065;48.884;12.598;2023-05-07T07:22:37;24.50;54.30
64654;DHT22;51065;48.884;12.598;2023-05-07T07:25:03;24.30;54.40
64654;DHT22;51065;48.884;12.598;2023-05-07T07:27:38;23.80;57.50
64654;DHT22;51065;48.884;12.598;2023-05-07T07:30:06;23.40;59.70
64654;DHT22;51065;48.884;12.598;2023-05-07T07:33:02;23.50;60.80
64654;DHT22;51065;48.884;12.598;2023-05-07T07:35:37;23.50;60.40
64654;DHT22;51065;48.884;12.598;2023-05-07T07:38:05;23.40;58.40
64654;DHT22;51065;48.884;12.598;2023-05-07T07:40:34;23.20;60.10
64654;DHT22;51065;48.884;12.598;2023-05-07T07:43:00;23.60;57.80
64654;DHT22;51065;48.884;12.598;2023-05-07T07:45:26;23.30;58.60
64654;DHT22;51065;48.884;12.598;2023-05-07T07:47:52;23.20;58.90
64654;DHT22;51065;48.884;12.598;2023-05-07T07:50:18;23.20;58.70
64654;DHT22;51065;48.884;12.598;2023-05-07T07:52:44;23.00;58.90
64654;DHT22;51065;48.884;12.598;2023-05-07T07:55:09;22.50;62.00
64654;DHT22;51065;48.884;12.598;2023-05-07T07:57:35;22.20;66.10
64654;DHT22;51065;48.884;12.598;2023-05-07T08:00:01;21.90;67.30
64654;DHT22;51065;48.884;12.598;2023-05-07T08:02:29;22.00;67.30
64654;DHT22;51065;48.884;12.598;2023-05-07T08:04:55;22.30;61.80
64654;DHT22;51065;48.884;12.598;2023-05-07T08:07:20;22.10;63.10
64654;DHT22;51065;48.884;12.598;2023-05-07T08:09:48;22.00;66.40
64654;DHT22;51065;48.884;12.598;2023-05-07T08:12:17;21.90;68.80
64654;DHT22;51065;48.884;12.598;2023-05-07T08:14:46;21.70;69.20
64654;DHT22;51065;48.884;12.598;2023-05-07T08:17:12;21.90;69.40
64654;DHT22;51065;48.884;12.598;2023-05-07T08:19:38;22.10;70.00
64654;DHT22;51065;48.884;12.598;2023-05-07T08:22:03;22.10;65.70
64654;DHT22;51065;48.884;12.598;2023-05-07T08:24:31;22.60;62.00
64654;DHT22;51065;48.884;12.598;2023-05-07T08:26:56;22.60;66.80
64654;DHT22;51065;48.884;12.598;2023-05-07T08:29:22;22.10;69.10
64654;DHT22;51065;48.884;12.598;2023-05-07T08:31:48;21.90;63.90
64654;DHT22;51065;48.884;12.598;2023-05-07T08:34:13;21.60;67.90
64654;DHT22;51065;48.884;12.598;2023-05-07T08:36:39;21.20;81.90
64654;DHT22;51065;48.884;12.598;2023-05-07T08:39:16;21.80;72.80
64654;DHT22;51065;48.884;12.598;2023-05-07T08:41:44;22.40;70.30
64654;DHT22;51065;48.884;12.598;2023-05-07T08:44:14;22.90;64.20
64654;DHT22;51065;48.884;12.598;2023-05-07T08:46:41;22.80;67.90
64654;DHT22;51065;48.884;12.598;2023-05-07T08:49:07;23.00;62.10
64654;DHT22;51065;48.884;12.598;2023-05-07T08:51:33;23.30;60.50
64654;DHT22;51065;48.884;12.598;2023-05-07T08:54:01;23.20;64.10
64654;DHT22;51065;48.884;12.598;2023-05-07T08:56:27;23.20;61.90
64654;DHT22;51065;48.884;12.598;2023-05-07T08:58:52;23.40;65.00
64654;DHT22;51065;48.884;12.598;2023-05-07T09:01:21;22.80;66.20
64654;DHT22;51065;48.884;12.598;2023-05-07T09:03:47;23.00;74.70
64654;DHT22;51065;48.884;12.598;2023-05-07T09:06:13;23.90;72.40
64654;DHT22;51065;48.884;12.598;2023-05-07T09:08:39;24.30;55.40
64654;DHT22;51065;48.884;12.598;2023-05-07T09:11:07;24.20;55.00
64654;DHT22;51065;48.884;12.598;2023-05-07T09:13:33;24.70;57.70
64654;DHT22;51065;48.884;12.598;2023-05-07T09:16:09;24.70;57.40
64654;DHT22;51065;48.884;12.598;2023-05-07T09:18:35;25.00;52.50
64654;DHT22;51065;48.884;12.598;2023-05-07T09:21:00;25.20;54.20
64654;DHT22;51065;48.884;12.598;2023-05-07T09:23:26;25.40;56.80
64654;DHT22;51065;48.884;12.598;2023-05-07T09:26:01;26.20;54.00
64654;DHT22;51065;48.884;12.598;2023-05-07T09:28:27;27.50;50.70
64654;DHT22;51065;48.884;12.598;2023-05-07T09:30:53;26.60;48.30
64654;DHT22;51065;48.884;12.598;2023-05-07T09:33:18;26.40;51.50
64654;DHT22;51065;48.884;12.598;2023-05-07T09:35:44;25.60;52.50
64654;DHT22;51065;48.884;12.598;2023-05-07T09:38:10;25.60;52.80
64654;DHT22;51065;48.884;12.598;2023-05-07T09:40:35;25.60;51.50
64654;DHT22;51065;48.884;12.598;2023-05-07T09:43:11;26.00;52.20
64654;DHT22;51065;48.884;12.598;2023-05-07T09:45:38;26.70;54.00
64654;DHT22;51065;48.884;12.598;2023-05-07T09:48:05;26.50;48.50
64654;DHT22;51065;48.884;12.598;2023-05-07T09:50:48;26.80;49.20
64654;DHT22;51065;48.884;12.598;2023-05-07T09:53:14;26.50;50.70
64654;DHT22;51065;48.884;12.598;2023-05-07T09:55:41;27.20;49.80
64654;DHT22;51065;48.884;12.598;2023-05-07T09:58:07;27.80;47.90
64654;DHT22;51065;48.884;12.598;2023-05-07T10:00:35;28.00;48.50
64654;DHT22;51065;48.884;12.598;2023-05-07T10:03:01;29.50;45.50
64654;DHT22;51065;48.884;12.598;2023-05-07T10:05:28;29.90;43.90
64654;DHT22;51065;48.884;12.598;2023-05-07T10:07:54;29.30;43.70
64654;DHT22;51065;48.884;12.598;2023-05-07T10:10:21;28.80;44.40
64654;DHT22;51065;48.884;12.598;2023-05-07T10:12:47;27.40;44.80
64654;DHT22;51065;48.884;12.598;2023-05-07T10:15:16;26.80;47.10
64654;DHT22;51065;48.884;12.598;2023-05-07T10:17:42;27.00;48.60
64654;DHT22;51065;48.884;12.598;2023-05-07T10:20:09;26.70;49.60
64654;DHT22;51065;48.884;12.598;2023-05-07T10:22:41;27.50;48.70
64654;DHT22;51065;48.884;12.598;2023-05-07T10:25:22;27.60;45.70
64654;DHT22;51065;48.884;12.598;2023-05-07T10:27:52;27.00;46.70
64654;DHT22;51065;48.884;12.598;2023-05-07T10:30:48;26.90;48.50
64654;DHT22;51065;48.884;12.598;2023-05-07T10:33:27;26.80;48.30
64654;DHT22;51065;48.884;12.598;2023-05-07T10:35:59;26.50;48.10
64654;DHT22;51065;48.884;12.598;2023-05-07T10:38:30;26.20;48.70
64654;DHT22;51065;48.884;12.598;2023-05-07T10:40:56;26.20;50.80
64654;DHT22;51065;48.884;12.598;2023-05-07T10:43:22;26.50;49.90
64654;DHT22;51065;48.884;12.598;2023-05-07T10:46:17;26.60;50.20
64654;DHT22;51065;48.884;12.598;2023-05-07T10:51:31;27.30;48.70
64654;DHT22;51065;48.884;12.598;2023-05-07T10:56:39;25.90;48.30
64654;DHT22;51065;48.884;12.598;2023-05-07T11:01:53;27.40;47.70
64654;DHT22;51065;48.884;12.598;2023-05-07T11:04:19;27.90;48.80
64654;DHT22;51065;48.884;12.598;2023-05-07T11:12:17;26.40;48.80
64654;DHT22;51065;48.884;12.598;2023-05-07T11:17:08;27.00;50.50
64654;DHT22;51065;48.884;12.598;2023-05-07T11:19:51;26.10;51.30
64654;DHT22;51065;48.884;12.598;2023-05-07T11:25:02;25.50;55.40
64654;DHT22;51065;48.884;12.598;2023-05-07T11:27:37;25.80;53.70
64654;DHT22;51065;48.884;12.598;2023-05-07T11:30:07;26.50;53.70
64654;DHT22;51065;48.884;12.598;2023-05-07T11:32:32;26.40;50.30
64654;DHT22;51065;48.884;12.598;2023-05-07T11:34:59;26.00;51.60
64654;DHT22;51065;48.884;12.598;2023-05-07T11:37:26;26.10;51.10
64654;DHT22;51065;48.884;12.598;2023-05-07T11:40:08;26.40;53.00
64654;DHT22;51065;48.884;12.598;2023-05-07T11:42:38;27.30;51.80
64654;DHT22;51065;48.884;12.598;2023-05-07T11:45:05;28.00;48.70
64654;DHT22;51065;48.884;12.598;2023-05-07T11:47:34;27.00;49.70
64654;DHT22;51065;48.884;12.598;2023-05-07T11:50:05;27.20;49.30
64654;DHT22;51065;48.884;12.598;2023-05-07T11:52:35;27.30;48.70
64654;DHT22;51065;48.884;12.598;2023-05-07T11:55:02;27.20;50.50
64654;DHT22;51065;48.884;12.598;2023-05-07T11:57:28;26.80;49.60
64654;DHT22;51065;48.884;12.598;2023-05-07T11:59:55;26.20;50.40
64654;DHT22;51065;48.884;12.598;2023-05-07T12:02:21;26.40;50.70
64654;DHT22;51065;48.884;12.598;2023-05-07T12:04:47;26.20;51.40
64654;DHT22;51065;48.884;12.598;2023-05-07T12:07:16;25.60;51.00
64654;DHT22;51065;48.884;12.598;2023-05-07T12:09:43;25.20;53.50
64654;DHT22;51065;48.884;12.598;2023-05-07T12:12:09;25.00;53.70
64654;DHT22;51065;48.884;12.598;2023-05-07T12:14:52;25.30;51.80
64654;DHT22;51065;48.884;12.598;2023-05-07T12:17:18;25.00;53.40
64654;DHT22;51065;48.884;12.598;2023-05-07T12:19:44;24.50;54.10
64654;DHT22;51065;48.884;12.598;2023-05-07T12:22:10;24.40;53.80
64654;DHT22;51065;48.884;12.598;2023-05-07T12:24:48;24.60;54.70
64654;DHT22;51065;48.884;12.598;2023-05-07T12:27:15;24.40;58.90
64654;DHT22;51065;48.884;12.598;2023-05-07T12:29:47;24.50;55.30
64654;DHT22;51065;48.884;12.598;2023-05-07T12:32:18;24.50;56.90
64654;DHT22;51065;48.884;12.598;2023-05-07T12:34:44;24.50;54.10
64654;DHT22;51065;48.884;12.598;2023-05-07T12:37:11;24.80;52.50
64654;DHT22;51065;48.884;12.598;2023-05-07T12:39:38;25.10;53.70
64654;DHT22;51065;48.884;12.598;2023-05-07T12:42:03;25.00;54.90
64654;DHT22;51065;48.884;12.598;2023-05-07T12:44:33;25.00;52.30
64654;DHT22;51065;48.884;12.598;2023-05-07T12:47:04;25.40;52.00
64654;DHT22;51065;48.884;12.598;2023-05-07T12:49:38;25.60;52.80
64654;DHT22;51065;48.884;12.598;2023-05-07T12:52:04;25.80;50.40
64654;DHT22;51065;48.884;12.598;2023-05-07T12:54:36;25.30;50.70
64654;DHT22;51065;48.884;12.598;2023-05-07T12:57:12;25.20;51.20
64654;DHT22;51065;48.884;12.598;2023-05-07T12:59:39;25.60;50.60
64654;DHT22;51065;48.884;12.598;2023-05-07T13:02:06;26.00;48.20
64654;DHT22;51065;48.884;12.598;2023-05-07T13:04:32;25.60;51.60
64654;DHT22;51065;48.884;12.598;2023-05-07T13:07:01;26.20;49.00
64654;DHT22;51065;48.884;12.598;2023-05-07T13:09:27;26.60;47.80
64654;DHT22;51065;48.884;12.598;2023-05-07T13:11:54;26.40;47.80
64654;DHT22;51065;48.884;12.598;2023-05-07T13:14:20;25.80;47.80
64654;DHT22;51065;48.884;12.598;2023-05-07T13:16:47;25.90;50.20
64654;DHT22;51065;48.884;12.598;2023-05-07T13:19:12;26.20;49.10
64654;DHT22;51065;48.884;12.598;2023-05-07T13:21:38;26.70;47.10
64654;DHT22;51065;48.884;12.598;2023-05-07T13:24:03;26.70;47.10
64654;DHT22;51065;48.884;12.598;2023-05-07T13:26:30;26.90;46.20
64654;DHT22;51065;48.884;12.598;2023-05-07T13:28:56;26.20;49.50
64654;DHT22;51065;48.884;12.598;2023-05-07T13:31:22;26.30;47.80
64654;DHT22;51065;48.884;12.598;2023-05-07T13:33:48;26.50;47.90
64654;DHT22;51065;48.884;12.598;2023-05-07T13:36:14;26.40;46.60
64654;DHT22;51065;48.884;12.598;2023-05-07T13:38:40;25.80;46.10
64654;DHT22;51065;48.884;12.598;2023-05-07T13:41:05;26.10;47.90
64654;DHT22;51065;48.884;12.598;2023-05-07T13:43:31;25.60;48.80
64654;DHT22;51065;48.884;12.598;2023-05-07T13:46:00;26.00;49.20
64654;DHT22;51065;48.884;12.598;2023-05-07T13:48:26;26.00;50.30
64654;DHT22;51065;48.884;12.598;2023-05-07T13:50:51;26.10;49.20
64654;DHT22;51065;48.884;12.598;2023-05-07T13:53:17;25.10;49.10
64654;DHT22;51065;48.884;12.598;2023-05-07T13:55:44;25.00;50.20
64654;DHT22;51065;48.884;12.598;2023-05-07T13:58:10;25.00;49.80
64654;DHT22;51065;48.884;12.598;2023-05-07T14:00:35;25.00;50.50
64654;DHT22;51065;48.884;12.598;2023-05-07T14:03:01;24.90;51.60
64654;DHT22;51065;48.884;12.598;2023-05-07T14:05:27;25.10;51.30
64654;DHT22;51065;48.884;12.598;2023-05-07T14:07:57;25.30;51.70
64654;DHT22;51065;48.884;12.598;2023-05-07T14:10:23;25.60;50.50
64654;DHT22;51065;48.884;12.598;2023-05-07T14:12:48;26.00;49.60
64654;DHT22;51065;48.884;12.598;2023-05-07T14:15:17;25.60;49.00
64654;DHT22;51065;48.884;12.598;2023-05-07T14:17:43;25.40;48.70
64654;DHT22;51065;48.884;12.598;2023-05-07T14:20:09;25.20;49.70
64654;DHT22;51065;48.884;12.598;2023-05-07T14:22:36;25.10;51.50
64654;DHT22;51065;48.884;12.598;2023-05-07T14:25:01;25.30;51.60
64654;DHT22;51065;48.884;12.598;2023-05-07T14:27:27;24.90;50.80
64654;DHT22;51065;48.884;12.598;2023-05-07T14:29:52;25.00;51.90
64654;DHT22;51065;48.884;12.598;2023-05-07T14:32:18;25.20;50.70
64654;DHT22;51065;48.884;12.598;2023-05-07T14:34:44;24.80;50.80
64654;DHT22;51065;48.884;12.598;2023-05-07T14:37:10;24.70;50.80
64654;DHT22;51065;48.884;12.598;2023-05-07T14:39:36;24.30;50.60
64654;DHT22;51065;48.884;12.598;2023-05-07T14:42:02;23.90;50.70
64654;DHT22;51065;48.884;12.598;2023-05-07T14:44:28;23.90;53.20
64654;DHT22;51065;48.884;12.598;2023-05-07T14:46:54;24.10;53.00
64654;DHT22;51065;48.884;12.598;2023-05-07T14:49:19;24.20;52.40
64654;DHT22;51065;48.884;12.598;2023-05-07T14:51:46;23.90;53.60
64654;DHT22;51065;48.884;12.598;2023-05-07T14:54:13;24.20;51.20
64654;DHT22;51065;48.884;12.598;2023-05-07T14:56:38;24.30;51.50
64654;DHT22;51065;48.884;12.598;2023-05-07T14:59:04;24.00;52.00
64654;DHT22;51065;48.884;12.598;2023-05-07T15:01:30;23.80;51.50
64654;DHT22;51065;48.884;12.598;2023-05-07T15:03:56;23.40;51.50
64654;DHT22;51065;48.884;12.598;2023-05-07T15:06:21;22.90;52.30
64654;DHT22;51065;48.884;12.598;2023-05-07T15:08:47;22.60;55.00
64654;DHT22;51065;48.884;12.598;2023-05-07T15:11:14;22.70;56.70
64654;DHT22;51065;48.884;12.598;2023-05-07T15:13:39;22.90;59.30
64654;DHT22;51065;48.884;12.598;2023-05-07T15:16:05;22.80;53.50
64654;DHT22;51065;48.884;12.598;2023-05-07T15:18:30;22.70;54.40
64654;DHT22;51065;48.884;12.598;2023-05-07T15:20:59;22.70;53.80
64654;DHT22;51065;48.884;12.598;2023-05-07T15:23:25;22.50;56.50
64654;DHT22;51065;48.884;12.598;2023-05-07T15:25:51;22.30;53.30
64654;DHT22;51065;48.884;12.598;2023-05-07T15:28:17;22.10;56.70
64654;DHT22;51065;48.884;12.598;2023-05-07T15:30:42;22.00;54.60
64654;DHT22;51065;48.884;12.598;2023-05-07T15:33:08;22.10;54.90
64654;DHT22;51065;48.884;12.598;2023-05-07T15:35:33;22.20;54.10
64654;DHT22;51065;48.884;12.598;2023-05-07T15:37:59;22.40;54.00